createdAt,value
2018-04-01T00:00:09.841Z,12.63
2018-04-01T00:02:37.065Z,12.93
2018-04-01T00:05:04.967Z,14.40
2018-04-01T00:07:32.019Z,12.77
2018-04-01T00:09:59.902Z,17.40
2018-04-01T00:12:26.995Z,11.67
2018-04-01T00:14:54.054Z,14.90
2018-04-01T00:17:21.070Z,12.83
2018-04-01T00:19:48.625Z,12.23
2018-04-01T00:22:15.639Z,12.10
2018-04-01T00:24:43.805Z,13.53
2018-04-01T00:27:10.880Z,14.83
2018-04-01T00:29:38.394Z,13.27
2018-04-01T00:32:06.450Z,12.27
2018-04-01T00:34:33.495Z,14.63
2018-04-01T00:37:00.501Z,12.50
2018-04-01T00:39:27.560Z,16.17
2018-04-01T00:41:54.615Z,12.73
2018-04-01T00:44:21.721Z,18.10
2018-04-01T00:46:48.737Z,14.13
2018-04-01T00:49:16.065Z,16.73
2018-04-01T00:51:43.840Z,15.67
2018-04-01T00:54:11.859Z,15.20
2018-04-01T00:56:40.806Z,14.93
2018-04-01T00:59:11.799Z,13.27
2018-04-01T01:01:38.825Z,16.93
2018-04-01T01:04:06.710Z,16.10
2018-04-01T01:06:43.960Z,17.03
2018-04-01T01:09:11.061Z,16.70
2018-04-01T01:11:38.843Z,16.87
2018-04-01T01:14:06.642Z,15.33
2018-04-01T01:16:34.242Z,14.30
2018-04-01T01:19:01.835Z,13.73
2018-04-01T01:21:31.544Z,14.30
2018-04-01T01:24:10.482Z,17.50
2018-04-01T01:26:37.667Z,13.77
2018-04-01T01:29:05.553Z,17.93
2018-04-01T01:31:34.637Z,14.43
2018-04-01T01:34:02.198Z,15.07
2018-04-01T01:36:30.974Z,14.87
2018-04-01T01:39:01.533Z,15.63
2018-04-01T01:41:29.538Z,19.63
2018-04-01T01:43:58.793Z,15.77
2018-04-01T01:46:30.766Z,16.40
2018-04-01T01:48:59.791Z,14.27
2018-04-01T01:51:37.631Z,20.00
2018-04-01T01:54:05.562Z,17.57
2018-04-01T01:56:34.545Z,19.37
2018-04-01T01:59:01.875Z,17.13
2018-04-01T02:01:30.685Z,17.47
2018-04-01T02:03:58.224Z,17.90
2018-04-01T02:06:36.201Z,19.00
2018-04-01T02:09:13.511Z,17.40
2018-04-01T02:11:40.521Z,17.73
2018-04-01T02:14:07.537Z,16.30
2018-04-01T02:16:35.538Z,15.60
2018-04-01T02:19:02.665Z,19.60
2018-04-01T02:21:41.919Z,16.40
2018-04-01T02:24:08.965Z,17.97
2018-04-01T02:26:35.990Z,18.67
2018-04-01T02:29:03.002Z,23.90
2018-04-01T02:31:30.147Z,21.43
2018-04-01T02:33:58.571Z,20.43
2018-04-01T02:36:26.000Z,21.37
2018-04-01T02:38:53.290Z,23.10
2018-04-01T02:41:20.579Z,21.30
2018-04-01T02:43:47.790Z,21.97
2018-04-01T02:46:14.834Z,22.60
2018-04-01T02:48:41.838Z,21.13
2018-04-01T02:51:08.871Z,18.13
2018-04-01T02:53:35.882Z,21.30
2018-04-01T02:56:03.491Z,21.83
2018-04-01T02:58:31.901Z,24.60
2018-04-01T03:01:01.563Z,23.57
2018-04-01T03:03:29.173Z,22.90
2018-04-01T03:05:56.834Z,22.60
2018-04-01T03:08:30.284Z,21.93
2018-04-01T03:10:59.861Z,21.70
2018-04-01T03:13:28.576Z,21.57
2018-04-01T03:16:02.058Z,22.13
2018-04-01T03:18:31.548Z,22.10
2018-04-01T03:21:00.384Z,22.00
2018-04-01T03:23:28.886Z,26.77
2018-04-01T03:25:57.083Z,19.40
2018-04-01T03:28:25.890Z,27.07
2018-04-01T03:30:52.999Z,21.27
2018-04-01T03:33:22.033Z,22.00
2018-04-01T03:35:50.315Z,20.00
2018-04-01T03:38:19.832Z,16.93
2018-04-01T03:40:46.989Z,19.10
2018-04-01T03:43:14.170Z,21.80
2018-04-01T03:45:41.177Z,17.63
2018-04-01T03:48:08.231Z,19.10
2018-04-01T03:50:35.493Z,12.70
2018-04-01T03:53:03.334Z,12.13
2018-04-01T03:55:32.024Z,11.87
2018-04-01T03:58:00.830Z,12.80
2018-04-01T04:00:29.812Z,11.10
2018-04-01T04:03:10.354Z,9.97
2018-04-01T04:05:37.372Z,10.63
2018-04-01T04:08:04.377Z,6.97
2018-04-01T04:10:31.534Z,9.37
2018-04-01T04:12:59.404Z,8.53
2018-04-01T04:15:29.574Z,9.17
2018-04-01T04:17:58.228Z,11.93
2018-04-01T04:20:26.374Z,15.70
2018-04-01T04:22:59.136Z,12.07
2018-04-01T04:25:28.013Z,10.27
2018-04-01T04:27:59.198Z,8.50
2018-04-01T04:30:38.537Z,9.30
2018-04-01T04:33:06.634Z,9.70
2018-04-01T04:35:33.762Z,9.30
2018-04-01T04:38:00.883Z,10.80
2018-04-01T04:40:38.497Z,9.80
2018-04-01T04:43:06.266Z,8.70
2018-04-01T04:45:43.241Z,9.23
2018-04-01T04:48:11.752Z,9.33
2018-04-01T04:50:38.754Z,7.93
2018-04-01T04:53:06.112Z,8.50
2018-04-01T04:55:33.694Z,8.63
2018-04-01T04:58:00.922Z,8.17
2018-04-01T05:00:30.112Z,7.90
2018-04-01T05:02:58.735Z,9.57
2018-04-01T05:05:31.277Z,7.70
2018-04-01T05:08:00.801Z,9.20
2018-04-01T05:10:38.700Z,10.37
2018-04-01T05:13:05.724Z,11.33
2018-04-01T05:15:44.397Z,12.40
2018-04-01T05:18:11.523Z,12.10
2018-04-01T05:20:39.401Z,18.07
2018-04-01T05:23:07.197Z,16.53
2018-04-01T05:25:34.413Z,19.00
2018-04-01T05:28:02.690Z,21.53
2018-04-01T05:30:32.469Z,19.97
2018-04-01T05:33:09.879Z,21.97
2018-04-01T05:35:36.889Z,15.17
2018-04-01T05:38:04.013Z,15.50
2018-04-01T05:40:32.268Z,12.80
2018-04-01T05:42:59.965Z,9.80
2018-04-01T05:45:37.688Z,9.60
2018-04-01T05:48:05.213Z,9.13
2018-04-01T05:50:34.355Z,7.07
2018-04-01T05:53:01.749Z,7.40
2018-04-01T05:55:31.166Z,4.90
2018-04-01T05:58:08.197Z,2.90
2018-04-01T06:00:35.212Z,3.47
2018-04-01T06:03:04.286Z,3.50
2018-04-01T06:05:32.228Z,3.00
2018-04-01T06:08:10.537Z,5.20
2018-04-01T06:10:37.537Z,5.03
2018-04-01T06:13:05.325Z,4.20
2018-04-01T06:15:43.174Z,5.00
2018-04-01T06:18:10.287Z,5.37
2018-04-01T06:20:37.298Z,5.47
2018-04-01T06:23:04.872Z,4.20
2018-04-01T06:25:33.149Z,4.67
2018-04-01T06:28:00.913Z,5.00
2018-04-01T06:30:40.744Z,3.80
2018-04-01T06:33:08.646Z,4.40
2018-04-01T06:35:35.649Z,4.53
2018-04-01T06:38:12.640Z,4.30
2018-04-01T06:40:39.744Z,5.97
2018-04-01T06:43:06.852Z,4.17
2018-04-01T06:45:33.877Z,3.50
2018-04-01T06:48:01.010Z,4.97
2018-04-01T06:50:32.019Z,4.37
2018-04-01T06:53:02.531Z,4.60
2018-04-01T06:55:31.713Z,5.20
2018-04-01T06:58:01.762Z,6.40
2018-04-01T07:00:40.848Z,5.90
2018-04-01T07:03:07.973Z,6.33
2018-04-01T07:05:35.753Z,6.77
2018-04-01T07:08:04.335Z,6.83
2018-04-01T07:10:34.292Z,8.30
2018-04-01T07:13:01.421Z,8.17
2018-04-01T07:15:29.330Z,8.30
2018-04-01T07:17:56.825Z,11.20
2018-04-01T07:20:26.265Z,9.67
2018-04-01T07:22:54.530Z,12.00
2018-04-01T07:25:23.016Z,12.93
2018-04-01T07:27:52.280Z,10.77
2018-04-01T07:30:19.366Z,13.57
2018-04-01T07:32:47.714Z,16.67
2018-04-01T07:35:14.738Z,15.80
2018-04-01T07:37:41.767Z,14.67
2018-04-01T07:40:09.561Z,16.50
2018-04-01T07:42:37.380Z,16.63
2018-04-01T07:45:04.405Z,18.67
2018-04-01T07:47:32.332Z,16.10
2018-04-01T07:50:00.335Z,18.00
2018-04-01T07:52:27.547Z,22.70
2018-04-01T07:54:55.960Z,18.20
2018-04-01T07:57:23.042Z,20.33
2018-04-01T07:59:50.144Z,22.23
2018-04-01T08:02:18.035Z,21.10
2018-04-01T08:04:45.163Z,21.17
2018-04-01T08:07:12.941Z,22.67
2018-04-01T08:09:40.013Z,21.83
2018-04-01T08:12:08.127Z,25.57
2018-04-01T08:14:35.166Z,23.80
2018-04-01T08:17:03.248Z,25.67
2018-04-01T08:19:31.181Z,26.27
2018-04-01T08:21:59.214Z,24.30
2018-04-01T08:24:26.601Z,28.80
2018-04-01T08:26:54.897Z,26.03
2018-04-01T08:29:21.932Z,23.17
2018-04-01T08:31:49.805Z,22.27
2018-04-01T08:34:17.678Z,23.00
2018-04-01T08:36:44.662Z,23.60
2018-04-01T08:39:12.532Z,20.30
2018-04-01T08:41:40.311Z,20.70
2018-04-01T08:44:08.102Z,20.00
2018-04-01T08:46:35.150Z,19.93
2018-04-01T08:49:02.996Z,19.50
2018-04-01T08:51:30.708Z,21.50
2018-04-01T08:53:59.255Z,20.80
2018-04-01T08:56:27.884Z,23.90
2018-04-01T08:58:55.177Z,23.53
2018-04-01T09:01:32.108Z,19.03
2018-04-01T09:03:59.209Z,24.03
2018-04-01T09:06:26.989Z,23.90
2018-04-01T09:08:54.776Z,23.13
2018-04-01T09:11:23.780Z,26.07
2018-04-01T09:13:53.586Z,25.20
2018-04-01T09:16:22.382Z,23.40
2018-04-01T09:18:51.875Z,21.10
2018-04-01T09:21:21.779Z,28.20
2018-04-01T09:23:51.308Z,28.10
2018-04-01T09:26:20.660Z,27.23
2018-04-01T09:28:50.437Z,30.60
2018-04-01T09:31:32.204Z,29.30
2018-04-01T09:33:59.994Z,33.87
2018-04-01T09:36:26.996Z,37.07
2018-04-01T09:38:54.976Z,36.50
2018-04-01T09:41:22.582Z,33.07
2018-04-01T09:43:51.369Z,33.73
2018-04-01T09:46:29.921Z,35.00
2018-04-01T09:48:57.725Z,37.10
2018-04-01T09:51:24.869Z,32.20
2018-04-01T09:53:55.365Z,32.57
2018-04-01T09:56:33.025Z,32.73
2018-04-01T09:59:00.060Z,29.80
2018-04-01T10:01:27.648Z,28.93
2018-04-01T10:03:55.905Z,30.33
2018-04-01T10:06:23.649Z,32.97
2018-04-01T10:08:51.857Z,28.63
2018-04-01T10:11:19.727Z,24.50
2018-04-01T10:13:48.270Z,22.63
2018-04-01T10:16:20.505Z,25.17
2018-04-01T10:18:52.113Z,25.40
2018-04-01T10:21:21.919Z,23.17
2018-04-01T10:23:51.675Z,27.80
2018-04-01T10:26:20.108Z,20.43
2018-04-01T10:28:52.107Z,19.77
2018-04-01T10:31:21.993Z,21.23
2018-04-01T10:33:52.344Z,17.57
2018-04-01T10:36:21.660Z,18.40
2018-04-01T10:38:49.960Z,19.10
2018-04-01T10:41:28.197Z,21.30
2018-04-01T10:43:55.701Z,18.30
2018-04-01T10:46:23.977Z,15.10
2018-04-01T10:48:52.016Z,17.00
2018-04-01T10:51:20.104Z,16.77
2018-04-01T10:53:56.020Z,14.10
2018-04-01T10:56:23.900Z,14.50
2018-04-01T10:58:52.908Z,14.70
2018-04-01T11:01:21.730Z,15.73
2018-04-01T11:03:59.703Z,13.83
2018-04-01T11:06:26.720Z,14.40
2018-04-01T11:08:55.108Z,16.40
2018-04-01T11:11:23.797Z,17.60
2018-04-01T11:13:51.651Z,16.27
2018-04-01T11:16:20.506Z,14.73
2018-04-01T11:18:58.890Z,15.07
2018-04-01T11:21:26.158Z,15.13
2018-04-01T11:23:54.386Z,16.13
2018-04-01T11:26:32.600Z,15.57
2018-04-01T11:29:00.099Z,20.23
2018-04-01T11:31:27.468Z,19.70
2018-04-01T11:34:05.261Z,17.23
2018-04-01T11:36:32.384Z,17.30
2018-04-01T11:39:01.376Z,17.17
2018-04-01T11:41:28.889Z,18.27
2018-04-01T11:43:56.032Z,16.33
2018-04-01T11:46:27.379Z,13.33
2018-04-01T11:48:55.906Z,14.50
2018-04-01T11:51:24.380Z,14.27
2018-04-01T11:53:52.557Z,13.47
2018-04-01T11:56:19.737Z,14.50
2018-04-01T11:58:47.506Z,17.53
2018-04-01T12:01:14.617Z,22.13
2018-04-01T12:03:43.275Z,16.03
2018-04-01T12:06:10.802Z,17.97
2018-04-01T12:08:37.885Z,19.80
2018-04-01T12:11:05.995Z,18.97
2018-04-01T12:13:33.001Z,22.27
2018-04-01T12:16:00.027Z,20.83
2018-04-01T12:18:27.037Z,21.80
2018-04-01T12:20:54.148Z,23.90
2018-04-01T12:23:23.598Z,22.30
2018-04-01T12:25:51.340Z,23.27
2018-04-01T12:28:28.313Z,25.10
2018-04-01T12:30:55.752Z,21.60
2018-04-01T12:33:23.501Z,22.97
2018-04-01T12:35:54.238Z,24.60
2018-04-01T12:38:24.783Z,26.77
2018-04-01T12:41:01.890Z,28.73
2018-04-01T12:43:28.995Z,29.50
2018-04-01T12:45:56.821Z,26.17
2018-04-01T12:48:23.963Z,27.20
2018-04-01T12:51:01.412Z,26.03
2018-04-01T12:53:28.421Z,29.20
2018-04-01T12:55:55.699Z,30.70
2018-04-01T12:58:22.914Z,48.17
2018-04-01T13:00:54.609Z,36.10
2018-04-01T13:03:33.622Z,31.83
2018-04-01T13:06:00.629Z,35.60
2018-04-01T13:08:28.005Z,36.10
2018-04-01T13:10:57.925Z,35.80
2018-04-01T13:13:25.192Z,37.40
2018-04-01T13:16:03.754Z,34.70
2018-04-01T13:18:30.794Z,36.37
2018-04-01T13:20:58.218Z,33.63
2018-04-01T13:23:37.004Z,35.33
2018-04-01T13:26:04.009Z,32.33
2018-04-01T13:28:31.798Z,33.57
2018-04-01T13:31:00.380Z,31.73
2018-04-01T13:33:28.195Z,37.57
2018-04-01T13:35:56.044Z,39.60
2018-04-01T13:38:24.209Z,40.20
2018-04-01T13:40:52.496Z,40.43
2018-04-01T13:43:21.504Z,45.10
2018-04-01T13:45:51.076Z,42.10
2018-04-01T13:48:18.521Z,41.27
2018-04-01T13:50:46.452Z,43.10
2018-04-01T13:53:13.909Z,45.67
2018-04-01T13:55:41.102Z,43.90
2018-04-01T13:58:08.136Z,45.90
2018-04-01T14:00:35.245Z,52.47
2018-04-01T14:03:03.025Z,51.67
2018-04-01T14:05:30.800Z,51.30
2018-04-01T14:07:58.638Z,55.00
2018-04-01T14:10:25.726Z,63.67
2018-04-01T14:12:55.812Z,53.73
2018-04-01T14:15:25.983Z,54.83
2018-04-01T14:17:53.826Z,49.47
2018-04-01T14:20:20.958Z,51.77
2018-04-01T14:22:47.994Z,53.07
2018-04-01T14:25:15.745Z,49.53
2018-04-01T14:27:43.274Z,51.03
2018-04-01T14:30:12.695Z,48.30
2018-04-01T14:32:39.979Z,44.93
2018-04-01T14:35:07.535Z,37.47
2018-04-01T14:37:38.926Z,35.00
2018-04-01T14:40:06.930Z,22.67
2018-04-01T14:42:34.972Z,18.43
2018-04-01T14:45:02.176Z,14.63
2018-04-01T14:47:30.211Z,9.50
2018-04-01T14:49:57.688Z,9.70
2018-04-01T14:52:24.709Z,8.30
2018-04-01T14:54:51.737Z,11.13
2018-04-01T14:57:18.733Z,11.53
2018-04-01T14:59:46.053Z,13.80
2018-04-01T15:02:13.990Z,11.87
2018-04-01T15:04:41.783Z,12.73
2018-04-01T15:07:08.837Z,12.97
2018-04-01T15:09:36.706Z,13.87
2018-04-01T15:12:04.609Z,16.73
2018-04-01T15:14:33.866Z,20.23
2018-04-01T15:17:12.081Z,17.33
2018-04-01T15:19:39.185Z,21.70
2018-04-01T15:22:06.949Z,18.73
2018-04-01T15:24:34.074Z,20.20
2018-04-01T15:27:01.767Z,20.73
2018-04-01T15:29:30.524Z,24.40
2018-04-01T15:32:00.988Z,25.00
2018-04-01T15:34:30.935Z,25.13
2018-04-01T15:37:00.932Z,41.00
2018-04-01T15:39:39.520Z,41.97
2018-04-01T15:42:07.480Z,56.37
2018-04-01T15:44:34.997Z,33.40
2018-04-01T15:47:12.340Z,26.57
2018-04-01T15:49:39.368Z,27.90
2018-04-01T15:52:06.709Z,27.87
2018-04-01T15:54:34.085Z,22.87
2018-04-01T15:57:01.492Z,25.67
2018-04-01T15:59:29.769Z,23.90
2018-04-01T16:01:57.752Z,29.97
2018-04-01T16:04:24.873Z,24.17
2018-04-01T16:06:52.082Z,23.80
2018-04-01T16:09:19.986Z,22.37
2018-04-01T16:11:47.066Z,24.27
2018-04-01T16:14:14.104Z,26.80
2018-04-01T16:16:41.110Z,31.80
2018-04-01T16:19:09.259Z,27.17
2018-04-01T16:21:36.795Z,26.83
2018-04-01T16:24:05.125Z,27.97
2018-04-01T16:26:32.465Z,26.53
2018-04-01T16:28:59.714Z,27.50
2018-04-01T16:31:26.745Z,24.80
2018-04-01T16:33:54.001Z,28.60
2018-04-01T16:36:21.102Z,29.97
2018-04-01T16:38:48.295Z,25.37
2018-04-01T16:41:16.921Z,28.43
2018-04-01T16:43:44.144Z,28.57
2018-04-01T16:46:15.205Z,25.00
2018-04-01T16:48:46.054Z,32.90
2018-04-01T16:51:24.423Z,38.37
2018-04-01T16:53:51.461Z,28.67
2018-04-01T16:56:19.193Z,34.40
2018-04-01T16:58:48.360Z,34.93
2018-04-01T17:01:16.621Z,27.90
2018-04-01T17:03:45.132Z,33.20
2018-04-01T17:06:12.639Z,31.03
2018-04-01T17:08:51.083Z,30.93
2018-04-01T17:11:18.977Z,39.63
2018-04-01T17:13:46.859Z,33.70
2018-04-01T17:16:16.341Z,43.60
2018-04-01T17:18:44.697Z,32.53
2018-04-01T17:21:13.783Z,31.37
2018-04-01T17:23:51.237Z,32.00
2018-04-01T17:26:18.918Z,45.10
2018-04-01T17:28:47.234Z,42.30
2018-04-01T17:31:14.615Z,32.00
2018-04-01T17:33:44.237Z,43.47
2018-04-01T17:36:16.376Z,44.90
2018-04-01T17:38:44.818Z,36.60
2018-04-01T17:41:13.080Z,49.00
2018-04-01T17:43:44.541Z,31.50
2018-04-01T17:46:14.794Z,34.57
2018-04-01T17:48:45.203Z,37.63
2018-04-01T17:51:14.583Z,33.23
2018-04-01T17:53:45.185Z,37.20
2018-04-01T17:56:13.313Z,32.17
2018-04-01T17:58:42.749Z,36.17
2018-04-01T18:01:12.872Z,37.90
2018-04-01T18:03:43.021Z,37.90
2018-04-01T18:06:12.313Z,41.20
2018-04-01T18:08:44.679Z,56.40
2018-04-01T18:11:24.481Z,45.27
2018-04-01T18:13:51.506Z,46.90
2018-04-01T18:16:18.669Z,40.83
2018-04-01T18:18:47.822Z,46.17
2018-04-01T18:21:20.328Z,48.83
2018-04-01T18:23:48.961Z,48.47
2018-04-01T18:26:16.650Z,55.30
2018-04-01T18:28:46.802Z,43.00
2018-04-01T18:31:16.230Z,42.00
2018-04-01T18:33:54.042Z,45.90
2018-04-01T18:36:25.294Z,47.53
2018-04-01T18:38:52.493Z,44.53
2018-04-01T18:41:19.746Z,39.67
2018-04-01T18:43:51.801Z,40.80
2018-04-01T18:46:19.248Z,46.13
2018-04-01T18:48:47.102Z,38.77
2018-04-01T18:51:15.168Z,40.07
2018-04-01T18:53:44.826Z,43.43
2018-04-01T18:56:13.453Z,42.60
2018-04-01T18:58:41.694Z,56.27
2018-04-01T19:01:09.762Z,49.33
2018-04-01T19:03:38.925Z,60.20
2018-04-01T19:06:06.113Z,45.47
2018-04-01T19:08:33.295Z,52.40
2018-04-01T19:11:00.410Z,46.80
2018-04-01T19:13:28.181Z,43.03
2018-04-01T19:15:55.248Z,43.87
2018-04-01T19:18:26.804Z,44.33
2018-04-01T19:20:54.496Z,44.30
2018-04-01T19:23:22.757Z,47.00
2018-04-01T19:25:50.541Z,46.63
2018-04-01T19:28:18.459Z,49.67
2018-04-01T19:30:47.428Z,48.43
2018-04-01T19:33:15.419Z,50.40
2018-04-01T19:35:46.152Z,45.90
2018-04-01T19:38:25.877Z,48.80
2018-04-01T19:40:53.442Z,54.93
2018-04-01T19:43:21.089Z,53.30
2018-04-01T19:45:49.040Z,56.50
2018-04-01T19:48:17.168Z,49.70
2018-04-01T19:50:46.623Z,52.97
2018-04-01T19:53:17.609Z,61.53
2018-04-01T19:55:46.951Z,54.63
2018-04-01T19:58:15.482Z,49.77
2018-04-01T20:00:45.632Z,54.20
2018-04-01T20:03:23.083Z,50.60
2018-04-01T20:05:51.861Z,59.43
2018-04-01T20:08:20.434Z,55.97
2018-04-01T20:10:58.489Z,60.77
2018-04-01T20:13:26.101Z,61.87
2018-04-01T20:15:54.370Z,62.63
2018-04-01T20:18:21.961Z,64.17
2018-04-01T20:20:51.237Z,61.40
2018-04-01T20:23:19.705Z,63.60
2018-04-01T20:25:57.675Z,68.60
2018-04-01T20:28:25.697Z,67.97
2018-04-01T20:30:53.194Z,72.97
2018-04-01T20:33:22.619Z,69.57
2018-04-01T20:35:50.364Z,75.53
2018-04-01T20:38:19.222Z,84.03
2018-04-01T20:40:46.965Z,77.03
2018-04-01T20:43:15.390Z,80.23
2018-04-01T20:45:54.716Z,81.47
2018-04-01T20:48:23.094Z,90.00
2018-04-01T20:50:51.770Z,85.50
2018-04-01T20:53:21.394Z,82.83
2018-04-01T20:55:50.886Z,79.40
2018-04-01T20:58:20.638Z,84.47
2018-04-01T21:00:48.319Z,97.27
2018-04-01T21:03:26.193Z,83.93
2018-04-01T21:05:53.697Z,90.63
2018-04-01T21:08:21.221Z,97.97
2018-04-01T21:10:48.812Z,111.60
2018-04-01T21:13:18.607Z,109.77
2018-04-01T21:15:46.812Z,137.00
2018-04-01T21:18:16.932Z,134.20
2018-04-01T21:20:46.918Z,139.70
2018-04-01T21:23:15.998Z,132.67
2018-04-01T21:25:45.200Z,142.10
2018-04-01T21:28:16.147Z,147.73
2018-04-01T21:30:50.862Z,144.10
2018-04-01T21:33:19.437Z,149.60
2018-04-01T21:35:47.458Z,140.60
2018-04-01T21:38:17.143Z,145.57
2018-04-01T21:40:56.469Z,159.50
2018-04-01T21:43:23.994Z,162.53
2018-04-01T21:45:51.490Z,162.87
2018-04-01T21:48:19.790Z,181.40
2018-04-01T21:50:49.817Z,179.30
2018-04-01T21:53:18.161Z,178.00
2018-04-01T21:55:46.532Z,199.13
2018-04-01T21:58:15.686Z,192.73
2018-04-01T22:00:47.829Z,200.83
2018-04-01T22:03:20.027Z,212.30
2018-04-01T22:05:49.673Z,241.80
2018-04-01T22:08:19.485Z,240.53
2018-04-01T22:10:47.659Z,231.60
2018-04-01T22:13:18.939Z,240.17
2018-04-01T22:15:48.175Z,258.10
2018-04-01T22:18:18.434Z,249.10
2018-04-01T22:20:47.248Z,236.37
2018-04-01T22:23:17.078Z,249.63
2018-04-01T22:25:46.559Z,257.07
2018-04-01T22:28:17.174Z,259.23
2018-04-01T22:30:46.933Z,235.53
2018-04-01T22:33:26.856Z,244.07
2018-04-01T22:35:54.470Z,255.53
2018-04-01T22:38:22.853Z,266.03
2018-04-01T22:40:50.642Z,263.17
2018-04-01T22:43:20.530Z,276.87
2018-04-01T22:45:49.259Z,275.27
2018-04-01T22:48:18.288Z,276.47
2018-04-01T22:50:48.266Z,265.40
2018-04-01T22:53:18.431Z,280.23
2018-04-01T22:55:46.739Z,300.67
2018-04-01T22:58:16.588Z,366.30
2018-04-01T23:00:46.442Z,329.17
2018-04-01T23:03:18.053Z,316.70
2018-04-01T23:05:46.092Z,339.83
2018-04-01T23:08:16.248Z,326.90
2018-04-01T23:10:47.621Z,350.20
2018-04-01T23:13:15.800Z,331.60
2018-04-01T23:15:44.088Z,378.17
2018-04-01T23:18:12.704Z,313.67
2018-04-01T23:20:42.616Z,339.53
2018-04-01T23:23:11.095Z,317.93
2018-04-01T23:25:39.561Z,324.53
2018-04-01T23:28:14.654Z,310.53
2018-04-01T23:30:44.474Z,355.07
2018-04-01T23:33:13.444Z,327.37
2018-04-01T23:35:44.097Z,319.27
2018-04-01T23:38:12.647Z,309.90
2018-04-01T23:40:42.051Z,345.00
2018-04-01T23:43:11.240Z,306.20
2018-04-01T23:45:50.597Z,348.80
2018-04-01T23:48:18.874Z,297.63
2018-04-01T23:50:47.178Z,301.87
2018-04-01T23:53:14.703Z,312.57
2018-04-01T23:55:43.149Z,287.23
2018-04-01T23:58:13.088Z,305.93
